createdAt,value
2022-09-22T00:01:33.286Z,97951.88
2022-09-22T00:04:06.006Z,97959.97
2022-09-22T00:06:41.129Z,97948.97
2022-09-22T00:09:12.699Z,97958.41
2022-09-22T00:11:51.874Z,97953.16
2022-09-22T00:14:25.676Z,97952.06
2022-09-22T00:17:01.334Z,97948.03
2022-09-22T00:19:36.250Z,97935.31
2022-09-22T00:22:05.978Z,97945.03
2022-09-22T00:24:33.647Z,97952.44
2022-09-22T00:27:01.509Z,97955.41
2022-09-22T00:29:30.259Z,97952.81
2022-09-22T00:32:00.278Z,97952.50
2022-09-22T00:34:29.514Z,97956.25
2022-09-22T00:36:56.804Z,97955.59
2022-09-22T00:39:24.125Z,97953.19
2022-09-22T00:41:52.820Z,97948.34
2022-09-22T00:44:41.149Z,97944.13
2022-09-22T00:47:37.605Z,97945.81
2022-09-22T00:50:24.203Z,97946.38
2022-09-22T00:53:21.235Z,97940.53
2022-09-22T00:56:03.337Z,97946.63
2022-09-22T00:58:36.957Z,97941.41
2022-09-22T01:01:05.215Z,97940.19
2022-09-22T01:03:32.990Z,97944.91
2022-09-22T01:06:05.077Z,97943.66
2022-09-22T01:08:34.007Z,97941.00
2022-09-22T01:11:02.211Z,97938.94
2022-09-22T01:13:59.659Z,97936.75
2022-09-22T01:17:06.692Z,97942.03
2022-09-22T01:20:03.447Z,97938.78
2022-09-22T01:23:05.668Z,97934.34
2022-09-22T01:26:13.507Z,97936.44
2022-09-22T01:29:03.882Z,97928.44
2022-09-22T01:31:34.983Z,97921.19
2022-09-22T01:34:32.592Z,97930.81
2022-09-22T01:37:27.915Z,97932.22
2022-09-22T01:40:03.569Z,97927.44
2022-09-22T01:42:44.238Z,97923.50
2022-09-22T01:45:29.864Z,97923.88
2022-09-22T01:48:13.560Z,97921.53
2022-09-22T01:51:19.781Z,97919.28
2022-09-22T01:54:00.145Z,97921.00
2022-09-22T01:56:31.616Z,97912.03
2022-09-22T01:59:03.333Z,97914.94
2022-09-22T02:02:04.971Z,97912.34
2022-09-22T02:04:45.769Z,97916.75
2022-09-22T02:07:33.818Z,97913.31
2022-09-22T02:10:08.646Z,97908.16
2022-09-22T02:12:37.178Z,97908.53
2022-09-22T02:15:26.900Z,97907.94
2022-09-22T02:18:05.575Z,97903.19
2022-09-22T02:20:34.370Z,97906.69
2022-09-22T02:23:01.563Z,97903.72
2022-09-22T02:25:29.183Z,97904.94
2022-09-22T02:27:57.394Z,97909.91
2022-09-22T02:30:25.067Z,97906.81
2022-09-22T02:32:58.426Z,97906.28
2022-09-22T02:35:30.570Z,97907.63
2022-09-22T02:38:28.556Z,97907.97
2022-09-22T02:41:11.896Z,97904.63
2022-09-22T02:43:59.099Z,97902.34
2022-09-22T02:46:46.227Z,97908.75
2022-09-22T02:49:18.239Z,97911.06
2022-09-22T02:51:49.330Z,97900.03
2022-09-22T02:54:17.005Z,97902.63
2022-09-22T02:56:45.441Z,97899.00
2022-09-22T02:59:12.751Z,97900.50
2022-09-22T03:01:40.033Z,97906.69
2022-09-22T03:04:07.314Z,97905.13
2022-09-22T03:06:35.250Z,97905.97
2022-09-22T03:09:02.709Z,97909.22
2022-09-22T03:11:29.944Z,97911.06
2022-09-22T03:13:57.343Z,97909.69
2022-09-22T03:16:25.015Z,97918.06
2022-09-22T03:18:52.364Z,97915.72
2022-09-22T03:21:19.629Z,97918.38
2022-09-22T03:23:46.783Z,97916.00
2022-09-22T03:26:13.975Z,97913.38
2022-09-22T03:28:41.187Z,97921.09
2022-09-22T03:31:08.354Z,97913.59
2022-09-22T03:33:35.668Z,97911.75
2022-09-22T03:36:03.279Z,97905.53
2022-09-22T03:38:30.494Z,97905.22
2022-09-22T03:40:58.829Z,97902.63
2022-09-22T03:43:26.052Z,97908.97
2022-09-22T03:45:59.007Z,97906.38
2022-09-22T03:48:30.109Z,97900.97
2022-09-22T03:50:58.134Z,97903.44
2022-09-22T03:53:25.976Z,97912.03
2022-09-22T03:55:53.262Z,97908.53
2022-09-22T03:58:21.711Z,97914.38
2022-09-22T04:00:50.128Z,97911.44
2022-09-22T04:03:17.281Z,97914.53
2022-09-22T04:05:52.141Z,97910.41
2022-09-22T04:08:19.350Z,97910.16
2022-09-22T04:10:46.855Z,97911.50
2022-09-22T04:13:15.068Z,97917.84
2022-09-22T04:15:42.566Z,97911.44
2022-09-22T04:18:12.668Z,97916.16
2022-09-22T04:20:44.353Z,97913.81
2022-09-22T04:23:14.175Z,97911.44
2022-09-22T04:25:42.006Z,97903.78
2022-09-22T04:28:09.159Z,97914.09
2022-09-22T04:30:37.654Z,97906.94
2022-09-22T04:33:05.327Z,97910.69
2022-09-22T04:35:33.286Z,97915.16
2022-09-22T04:38:00.768Z,97908.81
2022-09-22T04:40:28.033Z,97907.19
2022-09-22T04:42:55.986Z,97911.34
2022-09-22T04:45:23.846Z,97915.75
2022-09-22T04:47:53.239Z,97912.88
2022-09-22T04:50:22.637Z,97910.25
2022-09-22T04:52:57.768Z,97912.16
2022-09-22T04:55:26.094Z,97917.78
2022-09-22T04:57:56.649Z,97916.28
2022-09-22T05:00:26.810Z,97923.94
2022-09-22T05:02:54.387Z,97913.31
2022-09-22T05:05:24.587Z,97914.13
2022-09-22T05:07:54.944Z,97912.03
2022-09-22T05:10:27.339Z,97899.81
2022-09-22T05:12:54.621Z,97903.69
2022-09-22T05:15:22.821Z,97909.22
2022-09-22T05:17:52.730Z,97909.22
2022-09-22T05:20:21.630Z,97922.06
2022-09-22T05:22:49.299Z,97925.09
2022-09-22T05:25:19.380Z,97926.25
2022-09-22T05:27:48.951Z,97920.63
2022-09-22T05:30:17.284Z,97920.06
2022-09-22T05:32:46.167Z,97921.19
2022-09-22T05:35:15.633Z,97924.50
2022-09-22T05:37:51.590Z,97914.72
2022-09-22T05:40:20.695Z,97923.50
2022-09-22T05:42:51.656Z,97924.19
2022-09-22T05:45:20.452Z,97925.84
2022-09-22T05:47:47.908Z,97923.50
2022-09-22T05:50:17.523Z,97927.00
2022-09-22T05:52:44.884Z,97926.34
2022-09-22T05:55:13.805Z,97925.28
2022-09-22T05:57:41.125Z,97921.19
2022-09-22T06:00:10.415Z,97923.47
2022-09-22T06:02:43.076Z,97932.41
2022-09-22T06:05:10.296Z,97935.72
2022-09-22T06:07:37.442Z,97939.53
2022-09-22T06:10:05.336Z,97931.97
2022-09-22T06:12:32.522Z,97934.94
2022-09-22T06:14:59.624Z,97931.53
2022-09-22T06:17:26.901Z,97940.31
2022-09-22T06:19:54.191Z,97929.78
2022-09-22T06:22:21.663Z,97937.25
2022-09-22T06:24:48.902Z,97943.66
2022-09-22T06:27:16.598Z,97941.06
2022-09-22T06:29:44.401Z,97945.00
2022-09-22T06:32:11.787Z,97947.19
2022-09-22T06:34:39.068Z,97947.53
2022-09-22T06:37:09.843Z,97943.94
2022-09-22T06:39:37.714Z,97947.31
2022-09-22T06:42:06.349Z,97951.47
2022-09-22T06:44:34.825Z,97953.50
2022-09-22T06:47:12.524Z,97944.03
2022-09-22T06:49:41.340Z,97950.63
2022-09-22T06:52:13.479Z,97951.28
2022-09-22T06:54:42.104Z,97954.44
2022-09-22T06:57:10.591Z,97955.66
2022-09-22T06:59:39.115Z,97963.50
2022-09-22T07:02:07.488Z,97967.41
2022-09-22T07:04:35.147Z,97962.31
2022-09-22T07:07:04.036Z,97957.19
2022-09-22T07:09:31.815Z,97957.28
2022-09-22T07:12:00.405Z,97962.88
2022-09-22T07:14:29.695Z,97962.13
2022-09-22T07:16:56.923Z,97965.97
2022-09-22T07:19:24.258Z,97968.47
2022-09-22T07:21:51.513Z,97969.34
2022-09-22T07:24:18.690Z,97972.50
2022-09-22T07:26:46.591Z,97976.22
2022-09-22T07:29:13.952Z,97975.66
2022-09-22T07:31:42.029Z,97974.41
2022-09-22T07:34:09.469Z,97980.22
2022-09-22T07:36:40.106Z,97986.06
2022-09-22T07:39:11.200Z,97982.38
2022-09-22T07:41:43.395Z,97983.94
2022-09-22T07:44:32.994Z,97979.97
2022-09-22T07:47:02.312Z,97982.03
2022-09-22T07:49:29.925Z,97987.44
2022-09-22T07:51:57.740Z,97992.09
2022-09-22T07:54:26.836Z,97991.00
2022-09-22T07:56:58.754Z,97996.50
2022-09-22T07:59:27.583Z,97990.59
2022-09-22T08:01:55.725Z,98005.41
2022-09-22T08:04:23.776Z,98000.66
2022-09-22T08:06:56.191Z,97999.53
2022-09-22T08:09:25.414Z,98003.84
2022-09-22T08:11:53.564Z,98011.06
2022-09-22T08:14:23.295Z,98014.47
2022-09-22T08:16:54.028Z,98014.00
2022-09-22T08:19:24.003Z,98013.44
2022-09-22T08:21:54.321Z,98014.28
2022-09-22T08:24:23.083Z,98014.91
2022-09-22T08:26:53.364Z,98015.63
2022-09-22T08:29:21.334Z,98019.25
2022-09-22T08:31:49.629Z,98012.75
2022-09-22T08:34:18.198Z,98017.53
2022-09-22T08:36:48.834Z,98015.13
2022-09-22T08:39:17.644Z,98010.31
2022-09-22T08:42:00.071Z,98006.84
2022-09-22T08:44:45.203Z,98013.66
2022-09-22T08:47:59.039Z,98008.59
2022-09-22T08:50:58.137Z,98012.25
2022-09-22T08:53:29.573Z,98008.28
2022-09-22T08:56:24.632Z,98004.19
2022-09-22T08:59:29.871Z,98015.03
2022-09-22T09:02:18.568Z,98037.31
2022-09-22T09:05:22.356Z,98031.25
2022-09-22T09:08:19.915Z,98020.22
2022-09-22T09:10:59.476Z,98032.19
2022-09-22T09:13:57.606Z,98031.16
2022-09-22T09:16:55.953Z,98038.66
2022-09-22T09:19:42.293Z,98036.22
2022-09-22T09:22:32.214Z,98024.97
2022-09-22T09:25:23.339Z,98020.44
2022-09-22T09:28:06.363Z,98021.09
2022-09-22T09:30:52.261Z,98011.47
2022-09-22T09:33:38.326Z,98010.94
2022-09-22T09:36:11.506Z,98025.28
2022-09-22T09:38:49.967Z,98019.00
2022-09-22T09:41:32.674Z,98029.81
2022-09-22T09:44:01.752Z,98031.91
2022-09-22T09:46:59.488Z,98031.31
2022-09-22T09:49:26.874Z,98024.75
2022-09-22T09:52:01.812Z,98021.97
2022-09-22T09:54:29.056Z,98012.09
2022-09-22T09:57:15.533Z,97993.16
2022-09-22T10:00:28.099Z,97987.53
2022-09-22T10:03:22.448Z,97990.41
2022-09-22T10:06:08.366Z,97999.91
2022-09-22T10:08:49.095Z,97995.84
2022-09-22T10:11:16.613Z,97997.41
2022-09-22T10:13:44.408Z,97983.00
2022-09-22T10:16:23.043Z,97985.31
2022-09-22T10:19:23.343Z,97983.47
2022-09-22T10:21:50.734Z,97981.97
2022-09-22T10:24:54.630Z,97975.50
2022-09-22T10:27:24.241Z,97983.72
2022-09-22T10:30:11.055Z,97979.91
2022-09-22T10:32:38.523Z,97987.13
2022-09-22T10:35:28.798Z,97993.88
2022-09-22T10:38:01.207Z,97986.84
2022-09-22T10:40:31.456Z,97982.88
2022-09-22T10:43:00.058Z,97981.47
2022-09-22T10:46:28.815Z,97977.66
2022-09-22T10:49:23.918Z,97979.91
2022-09-22T10:52:02.339Z,97976.19
2022-09-22T10:55:32.038Z,97997.78
2022-09-22T10:58:07.142Z,97991.78
2022-09-22T11:00:39.787Z,97986.00
2022-09-22T11:04:05.299Z,97985.22
2022-09-22T11:07:24.962Z,97970.09
2022-09-22T11:10:45.515Z,97969.25
2022-09-22T11:13:15.194Z,97965.13
2022-09-22T11:16:10.954Z,97971.56
2022-09-22T11:19:16.603Z,97968.66
2022-09-22T11:22:17.687Z,97974.50
2022-09-22T11:25:33.733Z,97962.06
2022-09-22T11:28:39.010Z,97964.66
2022-09-22T11:31:06.495Z,97961.31
2022-09-22T11:33:58.205Z,97963.13
2022-09-22T11:37:27.895Z,97962.88
2022-09-22T11:41:17.611Z,97964.94
2022-09-22T11:44:30.511Z,97949.88
2022-09-22T11:47:09.425Z,97960.22
2022-09-22T11:50:14.305Z,97950.06
2022-09-22T11:53:09.531Z,97946.91
2022-09-22T11:56:15.741Z,97941.97
2022-09-22T11:58:46.197Z,97943.91
2022-09-22T12:01:20.427Z,97950.63
2022-09-22T12:04:16.245Z,97943.50
2022-09-22T12:06:49.508Z,97939.84
2022-09-22T12:09:43.769Z,97940.22
2022-09-22T12:12:19.609Z,97938.78
2022-09-22T12:15:18.976Z,97940.84
2022-09-22T12:17:59.849Z,97935.88
2022-09-22T12:20:44.663Z,97947.06
2022-09-22T12:23:29.885Z,97937.09
2022-09-22T12:26:02.699Z,97941.44
2022-09-22T12:28:32.582Z,97940.50
2022-09-22T12:31:13.088Z,97929.75
2022-09-22T12:33:53.001Z,97938.19
2022-09-22T12:36:37.684Z,97937.59
2022-09-22T12:39:32.087Z,97936.38
2022-09-22T12:42:16.695Z,97929.66
2022-09-22T12:44:58.706Z,97926.09
2022-09-22T12:47:35.765Z,97922.38
2022-09-22T12:50:26.927Z,97922.09
2022-09-22T12:52:54.510Z,97918.38
2022-09-22T12:55:30.189Z,97916.91
2022-09-22T12:57:59.649Z,97912.09
2022-09-22T13:00:41.206Z,97912.97
2022-09-22T13:03:26.742Z,97910.50
2022-09-22T13:06:03.451Z,97917.63
2022-09-22T13:08:30.567Z,97912.38
2022-09-22T13:11:04.507Z,97905.75
2022-09-22T13:13:32.051Z,97909.91
2022-09-22T13:16:15.649Z,97904.91
2022-09-22T13:18:58.956Z,97901.44
2022-09-22T13:21:33.447Z,97894.91
2022-09-22T13:24:05.267Z,97898.50
2022-09-22T13:26:41.180Z,97890.09
2022-09-22T13:29:21.812Z,97891.09
2022-09-22T13:31:56.895Z,97889.09
2022-09-22T13:34:33.404Z,97891.47
2022-09-22T13:37:11.337Z,97885.44
2022-09-22T13:39:47.215Z,97885.97
2022-09-22T13:42:22.833Z,97889.47
2022-09-22T13:45:19.173Z,97880.31
2022-09-22T13:47:48.852Z,97875.38
2022-09-22T13:50:22.440Z,97877.53
2022-09-22T13:52:54.020Z,97886.25
2022-09-22T13:55:37.265Z,97882.00
2022-09-22T13:58:09.085Z,97872.56
2022-09-22T14:01:12.558Z,97880.22
2022-09-22T14:03:41.314Z,97878.25
2022-09-22T14:06:32.658Z,97878.28
2022-09-22T14:09:01.685Z,97875.47
2022-09-22T14:11:32.445Z,97876.19
2022-09-22T14:14:02.152Z,97884.50
2022-09-22T14:16:58.476Z,97885.44
2022-09-22T14:19:34.249Z,97880.47
2022-09-22T14:22:13.663Z,97878.16
2022-09-22T14:24:49.007Z,97880.56
2022-09-22T14:27:38.339Z,97887.84
2022-09-22T14:30:14.944Z,97885.09
2022-09-22T14:32:52.104Z,97883.13
2022-09-22T14:35:32.852Z,97875.56
2022-09-22T14:38:15.669Z,97874.31
2022-09-22T14:40:56.229Z,97873.97
2022-09-22T14:43:42.477Z,97870.72
2022-09-22T14:46:33.886Z,97873.38
2022-09-22T14:49:42.074Z,97877.53
2022-09-22T14:52:29.676Z,97869.91
2022-09-22T14:55:07.239Z,97867.84
2022-09-22T14:57:36.179Z,97863.69
2022-09-22T15:00:23.134Z,97866.56
2022-09-22T15:02:54.772Z,97863.97
2022-09-22T15:05:31.731Z,97868.22
2022-09-22T15:08:00.665Z,97868.44
2022-09-22T15:10:34.113Z,97863.91
2022-09-22T15:13:50.896Z,97870.22
2022-09-22T15:16:40.012Z,97865.50
2022-09-22T15:19:14.306Z,97871.31
2022-09-22T15:21:50.643Z,97867.34
2022-09-22T15:24:26.981Z,97870.84
2022-09-22T15:26:57.381Z,97872.75
2022-09-22T15:29:25.106Z,97872.22
2022-09-22T15:31:52.380Z,97872.72
2022-09-22T15:34:19.630Z,97872.53
2022-09-22T15:36:46.974Z,97874.94
2022-09-22T15:39:23.640Z,97874.47
2022-09-22T15:41:52.992Z,97869.19
2022-09-22T15:44:20.614Z,97871.59
2022-09-22T15:46:54.425Z,97866.03
2022-09-22T15:49:26.373Z,97872.69
2022-09-22T15:51:58.291Z,97870.06
2022-09-22T15:54:26.752Z,97868.44
2022-09-22T15:56:56.905Z,97871.91
2022-09-22T15:59:28.273Z,97877.47
2022-09-22T16:01:57.069Z,97865.03
2022-09-22T16:04:25.084Z,97870.63
2022-09-22T16:07:13.913Z,97865.84
2022-09-22T16:09:41.211Z,97872.78
2022-09-22T16:12:12.098Z,97871.19
2022-09-22T16:14:41.449Z,97874.66
2022-09-22T16:17:08.915Z,97869.91
2022-09-22T16:19:36.833Z,97868.81
2022-09-22T16:22:05.953Z,97874.91
2022-09-22T16:24:33.289Z,97881.53
2022-09-22T16:27:07.433Z,97884.44
2022-09-22T16:29:37.613Z,97890.81
2022-09-22T16:32:05.106Z,97887.34
2022-09-22T16:34:34.673Z,97887.34
2022-09-22T16:37:02.427Z,97888.91
2022-09-22T16:39:29.742Z,97890.19
2022-09-22T16:41:56.996Z,97886.75
2022-09-22T16:44:24.299Z,97883.53
2022-09-22T16:46:51.564Z,97886.94
2022-09-22T16:49:20.456Z,97888.47
2022-09-22T16:51:49.841Z,97888.88
2022-09-22T16:54:18.737Z,97885.59
2022-09-22T16:56:50.774Z,97883.91
2022-09-22T16:59:24.319Z,97885.72
2022-09-22T17:01:52.048Z,97882.25
2022-09-22T17:04:20.462Z,97887.50
2022-09-22T17:06:48.890Z,97889.09
2022-09-22T17:09:17.405Z,97880.66
2022-09-22T17:11:48.128Z,97889.09
2022-09-22T17:14:23.219Z,97890.69
2022-09-22T17:16:56.539Z,97888.28
2022-09-22T17:19:28.010Z,97894.84
2022-09-22T17:21:56.440Z,97887.44
2022-09-22T17:24:25.786Z,97887.22
2022-09-22T17:26:59.040Z,97887.72
2022-09-22T17:29:31.415Z,97884.50
2022-09-22T17:32:05.864Z,97885.28
2022-09-22T17:34:34.869Z,97888.28
2022-09-22T17:37:03.290Z,97894.34
2022-09-22T17:39:32.180Z,97894.16
2022-09-22T17:41:59.809Z,97894.28
2022-09-22T17:44:28.945Z,97887.59
2022-09-22T17:47:15.106Z,97890.31
2022-09-22T17:50:01.040Z,97890.16
2022-09-22T17:52:47.155Z,97886.34
2022-09-22T17:55:22.568Z,97893.63
2022-09-22T17:57:51.824Z,97890.16
2022-09-22T18:00:23.258Z,97899.44
2022-09-22T18:02:54.276Z,97900.13
2022-09-22T18:05:27.808Z,97901.22
2022-09-22T18:07:59.579Z,97902.34
2022-09-22T18:10:32.467Z,97907.53
2022-09-22T18:13:01.477Z,97910.00
2022-09-22T18:15:29.348Z,97904.81
2022-09-22T18:17:58.119Z,97907.59
2022-09-22T18:20:26.307Z,97917.22
2022-09-22T18:22:54.623Z,97922.88
2022-09-22T18:25:24.020Z,97919.91
2022-09-22T18:27:53.303Z,97924.09
2022-09-22T18:30:20.940Z,97918.69
2022-09-22T18:32:49.432Z,97921.75
2022-09-22T18:35:17.402Z,97921.31
2022-09-22T18:37:44.832Z,97921.53
2022-09-22T18:40:12.509Z,97924.78
2022-09-22T18:42:41.542Z,97926.94
2022-09-22T18:45:11.136Z,97929.56
2022-09-22T18:47:40.933Z,97925.91
2022-09-22T18:50:09.509Z,97917.53
2022-09-22T18:52:37.383Z,97920.25
2022-09-22T18:55:09.446Z,97927.16
2022-09-22T18:57:36.794Z,97919.16
2022-09-22T19:00:05.356Z,97916.50
2022-09-22T19:02:32.796Z,97918.06
2022-09-22T19:05:00.317Z,97929.03
2022-09-22T19:07:44.065Z,97915.72
2022-09-22T19:10:22.496Z,97919.78
2022-09-22T19:12:50.268Z,97926.22
2022-09-22T19:15:19.390Z,97913.06
2022-09-22T19:17:49.542Z,97918.47
2022-09-22T19:20:24.035Z,97913.69
2022-09-22T19:22:52.646Z,97916.97
2022-09-22T19:25:21.858Z,97914.03
2022-09-22T19:27:52.552Z,97917.78
2022-09-22T19:30:23.397Z,97920.47
2022-09-22T19:32:53.313Z,97919.38
2022-09-22T19:35:22.311Z,97917.16
2022-09-22T19:37:52.017Z,97921.22
2022-09-22T19:40:24.445Z,97925.81
2022-09-22T19:42:53.752Z,97926.00
2022-09-22T19:45:22.349Z,97923.72
2022-09-22T19:47:49.933Z,97926.09
2022-09-22T19:50:18.080Z,97912.91
2022-09-22T19:52:45.341Z,97919.03
2022-09-22T19:55:12.705Z,97923.59
2022-09-22T19:57:43.411Z,97920.72
2022-09-22T20:00:18.112Z,97922.13
2022-09-22T20:02:45.729Z,97923.81
2022-09-22T20:05:21.930Z,97924.22
2022-09-22T20:07:49.756Z,97919.03
2022-09-22T20:10:19.318Z,97926.22
2022-09-22T20:12:46.687Z,97925.16
2022-09-22T20:15:15.258Z,97925.16
2022-09-22T20:17:46.340Z,97927.53
2022-09-22T20:20:19.804Z,97924.81
2022-09-22T20:23:00.102Z,97929.00
2022-09-22T20:25:30.939Z,97924.91
2022-09-22T20:27:59.112Z,97919.94
2022-09-22T20:30:27.623Z,97917.50
2022-09-22T20:32:55.167Z,97928.28
2022-09-22T20:35:22.434Z,97919.03
2022-09-22T20:37:51.595Z,97920.25
2022-09-22T20:40:21.667Z,97918.91
2022-09-22T20:42:50.866Z,97922.66
2022-09-22T20:45:20.884Z,97915.66
2022-09-22T20:47:48.250Z,97915.31
2022-09-22T20:50:15.885Z,97918.59
2022-09-22T20:52:43.269Z,97913.97
2022-09-22T20:55:11.787Z,97922.81
2022-09-22T20:57:40.261Z,97915.09
2022-09-22T21:00:08.486Z,97912.84
2022-09-22T21:02:35.835Z,97914.81
2022-09-22T21:05:03.390Z,97912.16
2022-09-22T21:07:32.502Z,97913.38
2022-09-22T21:10:18.150Z,97914.09
2022-09-22T21:12:45.530Z,97907.06
2022-09-22T21:15:13.281Z,97901.97
2022-09-22T21:17:43.984Z,97905.94
2022-09-22T21:20:11.528Z,97908.81
2022-09-22T21:22:38.728Z,97899.69
2022-09-22T21:25:06.530Z,97902.63
2022-09-22T21:27:33.724Z,97896.97
2022-09-22T21:30:01.169Z,97907.50
2022-09-22T21:32:28.371Z,97906.22
2022-09-22T21:34:57.481Z,97910.22
2022-09-22T21:37:25.041Z,97908.56
2022-09-22T21:39:52.332Z,97904.72
2022-09-22T21:42:20.093Z,97897.88
2022-09-22T21:44:48.705Z,97900.91
2022-09-22T21:47:15.925Z,97902.03
2022-09-22T21:49:43.192Z,97897.38
2022-09-22T21:52:10.384Z,97897.72
2022-09-22T21:54:37.672Z,97896.44
2022-09-22T21:57:05.141Z,97900.44
2022-09-22T21:59:32.379Z,97898.91
2022-09-22T22:02:00.229Z,97898.91
2022-09-22T22:04:27.730Z,97895.78
2022-09-22T22:06:55.081Z,97894.50
2022-09-22T22:09:24.178Z,97898.19
2022-09-22T22:11:58.940Z,97896.28
2022-09-22T22:14:32.060Z,97894.06
2022-09-22T22:17:01.226Z,97894.88
2022-09-22T22:19:28.507Z,97893.25
2022-09-22T22:21:55.864Z,97891.09
2022-09-22T22:24:41.165Z,97887.81
2022-09-22T22:27:10.816Z,97889.41
2022-09-22T22:29:39.021Z,97884.97
2022-09-22T22:32:09.248Z,97882.41
2022-09-22T22:34:37.674Z,97882.25
2022-09-22T22:37:08.870Z,97877.59
2022-09-22T22:39:36.174Z,97872.84
2022-09-22T22:42:04.475Z,97875.03
2022-09-22T22:44:31.673Z,97870.00
2022-09-22T22:46:58.845Z,97869.47
2022-09-22T22:49:27.200Z,97869.25
2022-09-22T22:51:54.377Z,97871.56
2022-09-22T22:54:21.567Z,97871.69
2022-09-22T22:56:51.223Z,97869.00
2022-09-22T22:59:19.424Z,97871.84
2022-09-22T23:01:46.795Z,97863.72
2022-09-22T23:04:14.197Z,97867.59
2022-09-22T23:06:45.204Z,97859.16
2022-09-22T23:09:16.832Z,97863.81
2022-09-22T23:11:46.412Z,97863.72
2022-09-22T23:14:16.338Z,97869.78
2022-09-22T23:16:46.600Z,97866.91
2022-09-22T23:19:17.646Z,97865.63
2022-09-22T23:21:45.501Z,97857.28
2022-09-22T23:24:19.223Z,97854.06
2022-09-22T23:26:47.165Z,97851.50
2022-09-22T23:29:14.666Z,97858.22
2022-09-22T23:31:42.220Z,97853.59
2022-09-22T23:34:09.421Z,97858.63
2022-09-22T23:36:36.701Z,97854.56
2022-09-22T23:39:04.781Z,97846.44
2022-09-22T23:41:35.238Z,97845.63
2022-09-22T23:44:03.352Z,97846.25
2022-09-22T23:46:31.763Z,97838.69
2022-09-22T23:49:00.226Z,97835.56
2022-09-22T23:51:28.230Z,97834.13
2022-09-22T23:53:56.275Z,97835.78
2022-09-22T23:56:24.368Z,97842.41
2022-09-22T23:58:52.124Z,97844.88
